createdAt,value
2019-03-13T00:01:57.536Z,-1.52
2019-03-13T00:04:26.756Z,-1.50
2019-03-13T00:06:55.953Z,-1.50
2019-03-13T00:09:25.259Z,-1.48
2019-03-13T00:11:54.491Z,-1.43
2019-03-13T00:14:23.738Z,-1.40
2019-03-13T00:16:52.920Z,-1.36
2019-03-13T00:19:22.228Z,-1.31
2019-03-13T00:21:51.460Z,-1.28
2019-03-13T00:24:20.688Z,-1.23
2019-03-13T00:26:49.926Z,-1.18
2019-03-13T00:29:19.233Z,-1.14
2019-03-13T00:31:48.503Z,-1.13
2019-03-13T00:34:17.753Z,-1.07
2019-03-13T00:36:46.953Z,-1.04
2019-03-13T00:39:16.155Z,-1.01
2019-03-13T00:41:45.392Z,-0.96
2019-03-13T00:44:14.631Z,-0.92
2019-03-13T00:46:43.908Z,-0.88
2019-03-13T00:49:13.159Z,-0.84
2019-03-13T00:51:42.382Z,-0.81
2019-03-13T00:54:11.592Z,-0.79
2019-03-13T00:56:40.903Z,-0.77
2019-03-13T00:59:10.102Z,-0.75
2019-03-13T01:02:07.255Z,-0.72
2019-03-13T01:04:41.110Z,-0.67
2019-03-13T01:07:11.551Z,-0.63
2019-03-13T01:09:40.768Z,-0.59
2019-03-13T01:12:09.975Z,-0.55
2019-03-13T01:14:39.292Z,-0.53
2019-03-13T01:17:08.793Z,-0.49
2019-03-13T01:19:37.990Z,-0.46
2019-03-13T01:22:07.220Z,-0.43
2019-03-13T01:24:36.399Z,-0.41
2019-03-13T01:27:05.619Z,-0.38
2019-03-13T01:29:35.229Z,-0.36
2019-03-13T01:32:32.765Z,-0.36
2019-03-13T01:35:21.050Z,-0.34
2019-03-13T01:37:50.434Z,-0.29
2019-03-13T01:40:19.831Z,-0.28
2019-03-13T01:42:49.049Z,-0.25
2019-03-13T01:45:18.355Z,-0.23
2019-03-13T01:47:47.564Z,-0.19
2019-03-13T01:50:16.806Z,-0.18
2019-03-13T01:52:45.998Z,-0.14
2019-03-13T01:55:15.206Z,-0.11
2019-03-13T01:57:44.450Z,-0.08
2019-03-13T02:00:14.163Z,-0.05
2019-03-13T02:02:43.373Z,-0.01
2019-03-13T02:05:12.600Z,0.03
2019-03-13T02:07:41.798Z,0.05
2019-03-13T02:10:11.058Z,0.05
2019-03-13T02:12:40.349Z,0.05
2019-03-13T02:15:10.602Z,0.08
2019-03-13T02:17:39.800Z,0.09
2019-03-13T02:20:10.203Z,0.09
2019-03-13T02:22:39.390Z,0.10
2019-03-13T02:25:08.797Z,0.10
2019-03-13T02:27:38.000Z,0.10
2019-03-13T02:30:08.493Z,0.10
2019-03-13T02:32:38.047Z,0.12
2019-03-13T02:35:07.367Z,0.10
2019-03-13T02:37:38.540Z,0.10
2019-03-13T02:40:09.086Z,0.09
2019-03-13T02:42:38.323Z,0.10
2019-03-13T02:45:09.212Z,0.10
2019-03-13T02:47:38.896Z,0.12
2019-03-13T02:50:09.384Z,0.10
2019-03-13T02:52:38.581Z,0.11
2019-03-13T02:55:08.252Z,0.11
2019-03-13T02:57:37.644Z,0.11
2019-03-13T03:00:10.002Z,0.10
2019-03-13T03:02:57.303Z,0.10
2019-03-13T03:05:26.576Z,0.12
2019-03-13T03:07:55.753Z,0.11
2019-03-13T03:10:25.041Z,0.11
2019-03-13T03:12:54.286Z,0.11
2019-03-13T03:15:23.530Z,0.11
2019-03-13T03:17:52.805Z,0.10
2019-03-13T03:20:22.015Z,0.11
2019-03-13T03:22:51.220Z,0.12
2019-03-13T03:25:20.825Z,0.13
2019-03-13T03:27:50.178Z,0.13
2019-03-13T03:30:21.546Z,0.16
2019-03-13T03:32:51.209Z,0.17
2019-03-13T03:35:20.481Z,0.17
2019-03-13T03:37:49.675Z,0.20
2019-03-13T03:40:22.356Z,0.22
2019-03-13T03:42:50.040Z,0.24
2019-03-13T03:45:19.260Z,0.23
2019-03-13T03:47:48.579Z,0.26
2019-03-13T03:50:17.907Z,-0.50
2019-03-13T03:52:47.510Z,0.30
2019-03-13T03:55:17.166Z,0.32
2019-03-13T03:57:46.567Z,0.33
2019-03-13T04:00:15.954Z,0.35
2019-03-13T04:02:45.181Z,0.37
2019-03-13T04:05:14.457Z,0.38
2019-03-13T04:07:43.843Z,0.38
2019-03-13T04:10:13.294Z,0.41
2019-03-13T04:12:42.541Z,0.42
2019-03-13T04:15:11.829Z,0.44
2019-03-13T04:17:41.066Z,0.46
2019-03-13T04:20:10.914Z,0.49
2019-03-13T04:22:40.190Z,0.50
2019-03-13T04:25:15.719Z,0.52
2019-03-13T04:27:44.937Z,0.54
2019-03-13T04:30:14.248Z,0.56
2019-03-13T04:32:43.816Z,0.57
2019-03-13T04:35:13.001Z,0.60
2019-03-13T04:37:42.190Z,0.62
2019-03-13T04:40:11.505Z,0.64
2019-03-13T04:42:40.774Z,0.66
2019-03-13T04:45:10.005Z,0.68
2019-03-13T04:47:39.214Z,0.70
2019-03-13T04:50:08.501Z,0.72
2019-03-13T04:52:37.750Z,0.74
2019-03-13T04:55:07.114Z,0.75
2019-03-13T04:57:36.310Z,0.77
2019-03-13T05:00:05.837Z,0.77
2019-03-13T05:02:35.138Z,0.78
2019-03-13T05:05:04.643Z,0.78
2019-03-13T05:07:33.838Z,0.78
2019-03-13T05:10:03.051Z,0.78
2019-03-13T05:12:32.337Z,0.79
2019-03-13T05:15:01.930Z,0.80
2019-03-13T05:17:31.151Z,0.80
2019-03-13T05:20:00.403Z,0.81
2019-03-13T05:22:29.693Z,0.83
2019-03-13T05:24:59.308Z,0.85
2019-03-13T05:27:28.512Z,0.86
2019-03-13T05:29:57.756Z,0.87
2019-03-13T05:32:27.130Z,0.90
2019-03-13T05:34:56.494Z,0.92
2019-03-13T05:37:25.702Z,0.94
2019-03-13T05:39:54.999Z,0.95
2019-03-13T05:42:24.270Z,0.96
2019-03-13T05:44:53.669Z,0.97
2019-03-13T05:47:23.246Z,0.97
2019-03-13T05:49:52.497Z,0.97
2019-03-13T05:52:21.742Z,0.97
2019-03-13T05:54:51.106Z,0.96
2019-03-13T05:57:20.352Z,0.97
2019-03-13T05:59:49.544Z,0.98
2019-03-13T06:02:18.779Z,0.97
2019-03-13T06:04:47.995Z,0.98
2019-03-13T06:07:20.295Z,0.99
2019-03-13T06:09:49.615Z,0.96
2019-03-13T06:12:18.800Z,0.96
2019-03-13T06:14:47.977Z,0.96
2019-03-13T06:17:17.192Z,0.96
2019-03-13T06:19:48.152Z,0.96
2019-03-13T06:22:17.452Z,0.95
2019-03-13T06:24:46.680Z,0.96
2019-03-13T06:27:15.893Z,0.97
2019-03-13T06:29:45.123Z,0.97
2019-03-13T06:32:14.450Z,0.98
2019-03-13T06:34:43.641Z,0.98
2019-03-13T06:37:13.062Z,0.97
2019-03-13T06:39:42.292Z,0.96
2019-03-13T06:42:11.518Z,0.95
2019-03-13T06:44:40.698Z,0.94
2019-03-13T06:47:10.037Z,0.95
2019-03-13T06:49:39.253Z,0.95
2019-03-13T06:52:08.431Z,0.95
2019-03-13T06:54:37.694Z,0.97
2019-03-13T06:57:06.882Z,0.99
2019-03-13T06:59:55.066Z,1.01
2019-03-13T07:02:31.412Z,1.00
2019-03-13T07:05:34.865Z,1.02
2019-03-13T07:08:26.120Z,1.01
2019-03-13T07:11:17.161Z,1.00
2019-03-13T07:14:01.111Z,0.98
2019-03-13T07:16:55.201Z,0.97
2019-03-13T07:19:52.660Z,0.96
2019-03-13T07:22:53.174Z,0.99
2019-03-13T07:25:49.683Z,1.01
2019-03-13T07:28:52.455Z,1.01
2019-03-13T07:31:42.897Z,1.02
2019-03-13T07:34:29.967Z,1.04
2019-03-13T07:37:36.633Z,1.03
2019-03-13T07:40:25.268Z,1.00
2019-03-13T07:43:28.822Z,0.98
2019-03-13T07:46:14.326Z,1.00
2019-03-13T07:49:01.429Z,1.01
2019-03-13T07:51:55.771Z,1.02
2019-03-13T07:54:45.000Z,1.01
2019-03-13T07:57:22.987Z,1.01
2019-03-13T08:00:07.807Z,1.01
2019-03-13T08:02:57.359Z,1.03
2019-03-13T08:05:45.950Z,1.02
2019-03-13T08:08:40.030Z,1.02
2019-03-13T08:11:37.378Z,1.01
2019-03-13T08:14:27.638Z,1.00
2019-03-13T08:17:09.197Z,1.00
2019-03-13T08:20:06.387Z,0.99
2019-03-13T08:23:06.852Z,1.00
2019-03-13T08:25:54.108Z,1.00
2019-03-13T08:28:42.250Z,1.02
2019-03-13T08:31:21.530Z,1.02
2019-03-13T08:34:07.273Z,1.03
2019-03-13T08:37:06.046Z,1.02
2019-03-13T08:39:47.519Z,1.03
2019-03-13T08:42:28.534Z,1.03
2019-03-13T08:45:15.334Z,1.03
2019-03-13T08:48:12.616Z,1.04
2019-03-13T08:51:00.902Z,1.03
2019-03-13T08:54:05.557Z,0.15
2019-03-13T08:56:53.775Z,1.05
2019-03-13T08:59:48.119Z,1.06
2019-03-13T09:02:36.431Z,1.09
2019-03-13T09:05:13.262Z,1.13
2019-03-13T09:08:00.621Z,1.16
2019-03-13T09:11:03.847Z,1.21
2019-03-13T09:13:59.528Z,1.24
2019-03-13T09:16:35.324Z,1.26
2019-03-13T09:19:20.358Z,1.26
2019-03-13T09:21:58.918Z,1.25
2019-03-13T09:25:11.202Z,1.25
2019-03-13T09:27:52.382Z,1.26
2019-03-13T09:30:39.406Z,1.28
2019-03-13T09:33:30.444Z,1.32
2019-03-13T09:36:20.088Z,1.34
2019-03-13T09:39:11.414Z,1.34
2019-03-13T09:41:59.559Z,1.33
2019-03-13T09:44:38.371Z,1.33
2019-03-13T09:47:32.542Z,1.35
2019-03-13T09:50:32.699Z,1.37
2019-03-13T09:53:33.034Z,1.41
2019-03-13T09:56:13.283Z,1.41
2019-03-13T09:58:52.369Z,1.42
2019-03-13T10:01:38.667Z,1.43
2019-03-13T10:04:25.736Z,1.44
2019-03-13T10:07:10.980Z,1.43
2019-03-13T10:09:51.198Z,1.43
2019-03-13T10:12:45.606Z,0.57
2019-03-13T10:15:36.716Z,1.45
2019-03-13T10:18:28.246Z,1.48
2019-03-13T10:21:17.833Z,1.47
2019-03-13T10:23:55.079Z,1.46
2019-03-13T10:26:49.432Z,1.44
2019-03-13T10:29:40.819Z,1.46
2019-03-13T10:32:29.155Z,1.45
2019-03-13T10:35:24.230Z,1.44
2019-03-13T10:38:19.035Z,1.46
2019-03-13T10:41:11.424Z,1.47
2019-03-13T10:43:59.598Z,1.47
2019-03-13T10:46:53.967Z,1.47
2019-03-13T10:49:31.622Z,1.46
2019-03-13T10:52:09.536Z,1.45
2019-03-13T10:54:56.291Z,1.46
2019-03-13T10:57:44.571Z,1.46
2019-03-13T11:00:33.069Z,1.48
2019-03-13T11:03:21.268Z,1.50
2019-03-13T11:06:00.374Z,1.52
2019-03-13T11:08:52.863Z,1.53
2019-03-13T11:11:35.106Z,1.41
2019-03-13T11:14:31.850Z,1.59
2019-03-13T11:17:16.930Z,1.58
2019-03-13T11:20:04.008Z,1.61
2019-03-13T11:22:48.339Z,1.64
2019-03-13T11:25:24.191Z,1.66
2019-03-13T11:28:18.338Z,0.88
2019-03-13T11:31:08.650Z,1.50
2019-03-13T11:34:09.071Z,1.66
2019-03-13T11:37:00.300Z,1.68
2019-03-13T11:39:51.681Z,1.69
2019-03-13T11:42:42.943Z,1.69
2019-03-13T11:45:23.054Z,1.71
2019-03-13T11:48:10.964Z,1.71
2019-03-13T11:51:05.198Z,1.69
2019-03-13T11:53:56.031Z,1.69
2019-03-13T11:56:44.306Z,1.71
2019-03-13T11:59:47.891Z,1.73
2019-03-13T12:02:48.024Z,1.72
2019-03-13T12:05:39.329Z,1.69
2019-03-13T12:08:32.086Z,1.68
2019-03-13T12:11:32.610Z,1.68
2019-03-13T12:14:20.996Z,1.67
2019-03-13T12:17:05.309Z,1.63
2019-03-13T12:19:53.570Z,1.62
2019-03-13T12:22:38.962Z,1.59
2019-03-13T12:25:31.513Z,1.59
2019-03-13T12:28:19.870Z,1.59
2019-03-13T12:31:08.018Z,1.61
2019-03-13T12:33:45.695Z,1.64
2019-03-13T12:36:23.642Z,1.65
2019-03-13T12:39:17.342Z,1.67
2019-03-13T12:42:04.061Z,1.69
2019-03-13T12:44:43.232Z,1.71
2019-03-13T12:47:31.421Z,1.74
2019-03-13T12:50:18.553Z,1.79
2019-03-13T12:53:25.097Z,1.81
2019-03-13T12:56:16.271Z,1.84
2019-03-13T12:59:07.535Z,1.88
2019-03-13T13:02:14.193Z,1.92
2019-03-13T13:05:01.196Z,1.03
2019-03-13T13:07:48.276Z,1.98
2019-03-13T13:10:36.413Z,2.00
2019-03-13T13:13:27.938Z,2.04
2019-03-13T13:16:16.180Z,2.08
2019-03-13T13:19:02.426Z,2.12
2019-03-13T13:21:31.656Z,2.18
2019-03-13T13:24:01.023Z,2.23
2019-03-13T13:26:30.635Z,2.25
2019-03-13T13:28:59.839Z,2.26
2019-03-13T13:31:29.139Z,2.31
2019-03-13T13:33:58.485Z,2.34
2019-03-13T13:36:27.691Z,2.36
2019-03-13T13:38:57.720Z,2.40
2019-03-13T13:41:27.102Z,2.43
2019-03-13T13:43:57.761Z,2.46
2019-03-13T13:46:29.471Z,2.51
2019-03-13T13:48:59.238Z,2.63
2019-03-13T13:51:28.613Z,2.75
2019-03-13T13:53:57.829Z,2.84
2019-03-13T13:56:27.067Z,2.92
2019-03-13T13:58:56.362Z,2.97
2019-03-13T14:01:25.716Z,3.00
2019-03-13T14:03:55.214Z,3.04
2019-03-13T14:06:24.533Z,3.06
2019-03-13T14:08:53.726Z,3.14
2019-03-13T14:11:22.964Z,3.17
2019-03-13T14:13:52.299Z,3.24
2019-03-13T14:16:24.563Z,3.29
2019-03-13T14:18:54.360Z,3.33
2019-03-13T14:21:23.603Z,3.35
2019-03-13T14:23:54.714Z,3.35
2019-03-13T14:26:23.930Z,3.38
2019-03-13T14:28:53.158Z,3.48
2019-03-13T14:31:22.442Z,3.65
2019-03-13T14:33:51.975Z,3.81
2019-03-13T14:36:21.140Z,4.01
2019-03-13T14:38:50.332Z,3.72
2019-03-13T14:41:19.672Z,5.22
2019-03-13T14:43:48.891Z,5.70
2019-03-13T14:46:18.096Z,5.91
2019-03-13T14:48:47.351Z,5.66
2019-03-13T14:51:16.572Z,5.23
2019-03-13T14:53:45.829Z,4.94
2019-03-13T14:56:15.126Z,4.68
2019-03-13T14:58:44.373Z,4.68
2019-03-13T15:01:13.610Z,4.68
2019-03-13T15:03:42.895Z,4.66
2019-03-13T15:06:12.077Z,4.65
2019-03-13T15:08:41.293Z,4.74
2019-03-13T15:11:10.539Z,4.95
2019-03-13T15:13:39.722Z,5.10
2019-03-13T15:16:08.929Z,5.31
2019-03-13T15:18:38.288Z,5.78
2019-03-13T15:21:07.502Z,6.38
2019-03-13T15:23:36.719Z,6.71
2019-03-13T15:26:06.191Z,6.96
2019-03-13T15:28:35.457Z,7.23
2019-03-13T15:31:05.140Z,7.20
2019-03-13T15:33:34.869Z,6.78
2019-03-13T15:36:04.071Z,6.32
2019-03-13T15:38:33.093Z,6.11
2019-03-13T15:41:02.340Z,6.01
2019-03-13T15:43:32.232Z,5.95
2019-03-13T15:46:01.464Z,6.07
2019-03-13T15:48:33.835Z,5.99
2019-03-13T15:51:03.031Z,5.62
2019-03-13T15:53:34.359Z,5.21
2019-03-13T15:56:05.941Z,4.88
2019-03-13T15:58:35.174Z,4.67
2019-03-13T16:01:04.527Z,4.51
2019-03-13T16:03:33.790Z,4.34
2019-03-13T16:06:03.092Z,4.21
2019-03-13T16:08:32.283Z,4.17
2019-03-13T16:11:01.737Z,4.09
2019-03-13T16:13:30.927Z,4.03
2019-03-13T16:16:01.691Z,3.98
2019-03-13T16:18:30.945Z,3.95
2019-03-13T16:21:00.544Z,3.92
2019-03-13T16:23:29.742Z,3.89
2019-03-13T16:25:59.335Z,3.87
2019-03-13T16:28:28.762Z,3.83
2019-03-13T16:30:57.900Z,3.78
2019-03-13T16:33:27.130Z,3.76
2019-03-13T16:35:56.433Z,3.72
2019-03-13T16:38:25.705Z,3.71
2019-03-13T16:40:57.492Z,3.69
2019-03-13T16:43:26.760Z,3.66
2019-03-13T16:45:56.026Z,3.62
2019-03-13T16:48:25.397Z,3.69
2019-03-13T16:50:54.629Z,3.72
2019-03-13T16:53:23.964Z,3.71
2019-03-13T16:55:53.231Z,3.67
2019-03-13T16:58:22.519Z,3.62
2019-03-13T17:00:51.717Z,3.56
2019-03-13T17:03:20.984Z,3.53
2019-03-13T17:05:50.176Z,3.49
2019-03-13T17:08:19.489Z,3.44
2019-03-13T17:10:48.728Z,3.40
2019-03-13T17:13:17.947Z,3.37
2019-03-13T17:15:47.525Z,3.34
2019-03-13T17:18:17.848Z,3.34
2019-03-13T17:20:47.048Z,3.33
2019-03-13T17:23:16.280Z,3.30
2019-03-13T17:25:45.519Z,3.32
2019-03-13T17:28:14.995Z,3.31
2019-03-13T17:30:44.252Z,3.31
2019-03-13T17:33:13.591Z,3.30
2019-03-13T17:35:42.798Z,3.32
2019-03-13T17:38:12.035Z,3.32
2019-03-13T17:40:41.420Z,3.31
2019-03-13T17:43:12.953Z,3.33
2019-03-13T17:45:42.146Z,3.34
2019-03-13T17:48:11.412Z,3.32
2019-03-13T17:50:40.627Z,3.32
2019-03-13T17:53:09.869Z,3.31
2019-03-13T17:55:39.167Z,3.32
2019-03-13T17:58:08.405Z,3.33
2019-03-13T18:00:44.569Z,3.32
2019-03-13T18:03:13.830Z,3.31
2019-03-13T18:05:43.314Z,3.29
2019-03-13T18:08:12.539Z,3.28
2019-03-13T18:10:41.901Z,3.28
2019-03-13T18:13:11.467Z,3.26
2019-03-13T18:15:40.774Z,3.26
2019-03-13T18:18:10.126Z,3.25
2019-03-13T18:20:39.974Z,3.23
2019-03-13T18:23:10.037Z,3.20
2019-03-13T18:25:39.169Z,3.19
2019-03-13T18:28:08.467Z,3.16
2019-03-13T18:30:37.945Z,3.18
2019-03-13T18:33:07.249Z,3.18
2019-03-13T18:35:36.513Z,3.17
2019-03-13T18:38:05.781Z,3.15
2019-03-13T18:40:34.977Z,3.16
2019-03-13T18:43:04.164Z,3.00
2019-03-13T18:45:34.912Z,3.14
2019-03-13T18:48:04.119Z,3.13
2019-03-13T18:50:33.316Z,3.12
2019-03-13T18:53:02.618Z,3.13
2019-03-13T18:55:31.971Z,3.12
2019-03-13T18:58:01.216Z,3.13
2019-03-13T19:00:31.073Z,3.13
2019-03-13T19:03:00.920Z,3.13
2019-03-13T19:05:30.145Z,3.14
2019-03-13T19:08:02.995Z,3.11
2019-03-13T19:10:32.444Z,3.10
2019-03-13T19:13:01.926Z,3.09
2019-03-13T19:15:31.575Z,3.09
2019-03-13T19:18:01.401Z,3.10
2019-03-13T19:20:31.349Z,3.11
2019-03-13T19:23:00.724Z,3.12
2019-03-13T19:25:30.032Z,3.12
2019-03-13T19:27:59.814Z,3.12
2019-03-13T19:30:30.426Z,3.12
2019-03-13T19:33:00.285Z,3.12
2019-03-13T19:35:29.672Z,3.11
2019-03-13T19:37:59.400Z,3.11
2019-03-13T19:40:28.835Z,3.08
2019-03-13T19:42:58.205Z,3.05
2019-03-13T19:45:45.909Z,3.04
2019-03-13T19:48:15.196Z,3.00
2019-03-13T19:50:44.569Z,2.99
2019-03-13T19:53:13.977Z,2.97
2019-03-13T19:55:43.193Z,2.96
2019-03-13T19:58:12.424Z,2.24
2019-03-13T20:00:41.753Z,2.91
2019-03-13T20:03:11.029Z,2.89
2019-03-13T20:05:45.694Z,2.88
2019-03-13T20:08:13.631Z,2.88
2019-03-13T20:10:42.268Z,2.89
2019-03-13T20:13:11.541Z,2.89
2019-03-13T20:15:40.976Z,2.92
2019-03-13T20:18:10.482Z,2.93
2019-03-13T20:20:39.807Z,2.98
2019-03-13T20:23:09.119Z,2.98
2019-03-13T20:25:38.383Z,2.99
2019-03-13T20:28:07.953Z,2.99
2019-03-13T20:30:37.520Z,3.01
2019-03-13T20:33:06.761Z,3.01
2019-03-13T20:35:37.006Z,3.02
2019-03-13T20:38:06.309Z,3.03
2019-03-13T20:40:35.536Z,3.03
2019-03-13T20:43:04.771Z,3.02
2019-03-13T20:45:34.225Z,3.01
2019-03-13T20:48:03.922Z,3.03
2019-03-13T20:50:37.388Z,3.02
2019-03-13T20:53:04.291Z,3.02
2019-03-13T20:55:33.775Z,3.04
2019-03-13T20:58:03.120Z,3.05
2019-03-13T21:00:34.666Z,3.06
2019-03-13T21:03:04.343Z,3.07
2019-03-13T21:05:33.962Z,3.07
2019-03-13T21:08:03.274Z,3.08
2019-03-13T21:10:32.483Z,3.09
2019-03-13T21:13:01.723Z,3.12
2019-03-13T21:15:31.098Z,3.13
2019-03-13T21:18:00.605Z,3.14
2019-03-13T21:20:29.822Z,3.15
2019-03-13T21:22:59.273Z,3.16
2019-03-13T21:25:28.541Z,3.17
2019-03-13T21:27:58.014Z,3.16
2019-03-13T21:30:27.292Z,3.19
2019-03-13T21:32:56.481Z,3.17
2019-03-13T21:35:25.887Z,3.19
2019-03-13T21:37:55.122Z,3.20
2019-03-13T21:40:24.453Z,3.19
2019-03-13T21:42:54.817Z,3.20
2019-03-13T21:45:24.575Z,3.19
2019-03-13T21:47:53.832Z,3.19
2019-03-13T21:50:23.871Z,3.20
2019-03-13T21:52:53.151Z,3.18
2019-03-13T21:55:22.397Z,3.19
2019-03-13T21:57:52.491Z,3.17
2019-03-13T22:00:23.485Z,3.18
2019-03-13T22:02:52.736Z,3.19
2019-03-13T22:05:26.098Z,3.18
2019-03-13T22:07:53.389Z,3.20
2019-03-13T22:10:22.693Z,3.19
2019-03-13T22:12:52.190Z,3.19
2019-03-13T22:15:21.545Z,3.21
2019-03-13T22:17:51.258Z,3.21
2019-03-13T22:20:20.634Z,3.20
2019-03-13T22:22:49.901Z,3.20
2019-03-13T22:25:19.127Z,3.21
2019-03-13T22:27:48.359Z,3.19
2019-03-13T22:30:19.346Z,3.20
2019-03-13T22:32:48.576Z,3.20
2019-03-13T22:35:17.775Z,3.21
2019-03-13T22:37:47.480Z,3.21
2019-03-13T22:40:16.820Z,3.21
2019-03-13T22:42:46.089Z,3.23
2019-03-13T22:45:15.419Z,3.24
2019-03-13T22:47:44.704Z,3.25
2019-03-13T22:50:15.825Z,3.27
2019-03-13T22:52:45.104Z,3.29
2019-03-13T22:55:14.423Z,3.29
2019-03-13T22:57:43.738Z,3.31
2019-03-13T23:00:27.702Z,3.32
2019-03-13T23:02:57.024Z,3.33
2019-03-13T23:05:26.420Z,3.35
2019-03-13T23:07:55.708Z,3.37
2019-03-13T23:10:31.728Z,3.39
2019-03-13T23:13:00.946Z,3.41
2019-03-13T23:15:30.131Z,3.42
2019-03-13T23:17:59.658Z,3.42
2019-03-13T23:20:28.817Z,3.43
2019-03-13T23:22:58.090Z,3.44
2019-03-13T23:25:27.279Z,3.46
2019-03-13T23:27:56.496Z,3.47
2019-03-13T23:30:25.740Z,3.48
2019-03-13T23:32:54.927Z,3.49
2019-03-13T23:35:24.180Z,3.51
2019-03-13T23:37:53.600Z,3.52
2019-03-13T23:40:22.840Z,3.52
2019-03-13T23:42:52.051Z,3.52
2019-03-13T23:45:21.259Z,3.54
2019-03-13T23:47:50.485Z,3.54
2019-03-13T23:50:19.714Z,3.55
2019-03-13T23:52:48.919Z,3.54
2019-03-13T23:55:18.119Z,3.54
2019-03-13T23:57:47.359Z,3.53
